sensor_id;sensor_type;location;lat;lon;timestamp;temperature;humidity
60039;DHT22;45916;52.734;6.544;2023-05-07T00:00:00;13.80;99.90
60039;DHT22;45916;52.734;6.544;2023-05-07T00:02:26;13.90;99.90
60039;DHT22;45916;52.734;6.544;2023-05-07T00:04:52;13.80;99.90
60039;DHT22;45916;52.734;6.544;2023-05-07T00:07:18;13.80;99.90
60039;DHT22;45916;52.734;6.544;2023-05-07T00:09:43;13.80;99.90
60039;DHT22;45916;52.734;6.544;2023-05-07T00:12:10;13.80;99.90
60039;DHT22;45916;52.734;6.544;2023-05-07T00:14:36;13.80;99.90
60039;DHT22;45916;52.734;6.544;2023-05-07T00:17:01;13.80;99.90
60039;DHT22;45916;52.734;6.544;2023-05-07T00:19:27;13.80;99.90
60039;DHT22;45916;52.734;6.544;2023-05-07T00:21:53;13.80;99.90
60039;DHT22;45916;52.734;6.544;2023-05-07T00:24:19;13.80;99.90
60039;DHT22;45916;52.734;6.544;2023-05-07T00:26:45;13.80;99.90
60039;DHT22;45916;52.734;6.544;2023-05-07T00:29:11;13.70;99.90
60039;DHT22;45916;52.734;6.544;2023-05-07T00:31:37;13.70;99.90
60039;DHT22;45916;52.734;6.544;2023-05-07T00:34:02;13.70;99.90
60039;DHT22;45916;52.734;6.544;2023-05-07T00:36:28;13.70;99.90
60039;DHT22;45916;52.734;6.544;2023-05-07T00:38:56;13.70;99.90
60039;DHT22;45916;52.734;6.544;2023-05-07T00:41:22;13.70;99.90
60039;DHT22;45916;52.734;6.544;2023-05-07T00:43:48;13.70;99.90
60039;DHT22;45916;52.734;6.544;2023-05-07T00:46:14;13.70;99.90
60039;DHT22;45916;52.734;6.544;2023-05-07T00:48:41;13.70;99.90
60039;DHT22;45916;52.734;6.544;2023-05-07T00:51:07;13.60;99.90
60039;DHT22;45916;52.734;6.544;2023-05-07T00:53:32;13.60;99.90
60039;DHT22;45916;52.734;6.544;2023-05-07T00:55:58;13.60;99.90
60039;DHT22;45916;52.734;6.544;2023-05-07T00:58:26;13.60;99.90
60039;DHT22;45916;52.734;6.544;2023-05-07T01:00:52;13.50;99.90
60039;DHT22;45916;52.734;6.544;2023-05-07T01:03:17;13.50;99.90
60039;DHT22;45916;52.734;6.544;2023-05-07T01:05:45;13.40;99.90
60039;DHT22;45916;52.734;6.544;2023-05-07T01:08:12;13.40;99.90
60039;DHT22;45916;52.734;6.544;2023-05-07T01:10:38;13.40;99.90
60039;DHT22;45916;52.734;6.544;2023-05-07T01:13:12;13.40;99.90
60039;DHT22;45916;52.734;6.544;2023-05-07T01:15:39;13.30;99.90
60039;DHT22;45916;52.734;6.544;2023-05-07T01:18:06;13.30;99.90
60039;DHT22;45916;52.734;6.544;2023-05-07T01:20:32;13.20;99.90
60039;DHT22;45916;52.734;6.544;2023-05-07T01:23:00;13.20;99.90
60039;DHT22;45916;52.734;6.544;2023-05-07T01:25:26;13.20;99.90
60039;DHT22;45916;52.734;6.544;2023-05-07T01:27:52;13.20;99.90
60039;DHT22;45916;52.734;6.544;2023-05-07T01:30:18;13.20;99.90
60039;DHT22;45916;52.734;6.544;2023-05-07T01:32:59;13.10;99.90
60039;DHT22;45916;52.734;6.544;2023-05-07T01:35:30;13.10;99.90
60039;DHT22;45916;52.734;6.544;2023-05-07T01:37:57;13.00;99.90
60039;DHT22;45916;52.734;6.544;2023-05-07T01:40:24;13.00;99.90
60039;DHT22;45916;52.734;6.544;2023-05-07T01:42:50;12.90;99.90
60039;DHT22;45916;52.734;6.544;2023-05-07T01:45:16;12.90;99.90
60039;DHT22;45916;52.734;6.544;2023-05-07T01:47:42;12.90;99.90
60039;DHT22;45916;52.734;6.544;2023-05-07T01:50:09;12.80;99.90
60039;DHT22;45916;52.734;6.544;2023-05-07T01:52:39;12.80;99.90
60039;DHT22;45916;52.734;6.544;2023-05-07T01:55:06;12.70;99.90
60039;DHT22;45916;52.734;6.544;2023-05-07T01:57:31;12.60;99.90
60039;DHT22;45916;52.734;6.544;2023-05-07T01:59:57;12.60;99.90
60039;DHT22;45916;52.734;6.544;2023-05-07T02:02:23;12.50;99.90
60039;DHT22;45916;52.734;6.544;2023-05-07T02:04:48;12.50;99.90
60039;DHT22;45916;52.734;6.544;2023-05-07T02:07:14;12.40;99.90
60039;DHT22;45916;52.734;6.544;2023-05-07T02:09:40;12.30;99.90
60039;DHT22;45916;52.734;6.544;2023-05-07T02:12:06;12.20;99.90
60039;DHT22;45916;52.734;6.544;2023-05-07T02:14:31;12.20;99.90
60039;DHT22;45916;52.734;6.544;2023-05-07T02:16:57;12.10;99.90
60039;DHT22;45916;52.734;6.544;2023-05-07T02:19:23;12.10;99.90
60039;DHT22;45916;52.734;6.544;2023-05-07T02:21:48;12.00;99.90
60039;DHT22;45916;52.734;6.544;2023-05-07T02:24:14;12.00;99.90
60039;DHT22;45916;52.734;6.544;2023-05-07T02:26:40;12.00;99.90
60039;DHT22;45916;52.734;6.544;2023-05-07T02:29:06;12.00;99.90
60039;DHT22;45916;52.734;6.544;2023-05-07T02:31:32;11.90;99.90
60039;DHT22;45916;52.734;6.544;2023-05-07T02:33:59;11.90;99.90
60039;DHT22;45916;52.734;6.544;2023-05-07T02:36:25;11.90;99.90
60039;DHT22;45916;52.734;6.544;2023-05-07T02:38:52;11.90;99.90
60039;DHT22;45916;52.734;6.544;2023-05-07T02:41:18;11.80;99.90
60039;DHT22;45916;52.734;6.544;2023-05-07T02:43:43;11.90;99.90
60039;DHT22;45916;52.734;6.544;2023-05-07T02:46:09;11.80;99.90
60039;DHT22;45916;52.734;6.544;2023-05-07T02:48:35;11.80;99.90
60039;DHT22;45916;52.734;6.544;2023-05-07T02:51:02;11.80;99.90
60039;DHT22;45916;52.734;6.544;2023-05-07T02:53:28;11.80;99.90
60039;DHT22;45916;52.734;6.544;2023-05-07T02:55:59;11.80;99.90
60039;DHT22;45916;52.734;6.544;2023-05-07T02:58:25;11.80;99.90
60039;DHT22;45916;52.734;6.544;2023-05-07T03:00:50;11.80;99.90
60039;DHT22;45916;52.734;6.544;2023-05-07T03:03:16;11.70;99.90
60039;DHT22;45916;52.734;6.544;2023-05-07T03:05:42;11.70;99.90
60039;DHT22;45916;52.734;6.544;2023-05-07T03:08:08;11.70;99.90
60039;DHT22;45916;52.734;6.544;2023-05-07T03:10:35;11.70;99.90
60039;DHT22;45916;52.734;6.544;2023-05-07T03:13:01;11.60;99.90
60039;DHT22;45916;52.734;6.544;2023-05-07T03:15:27;11.70;99.90
60039;DHT22;45916;52.734;6.544;2023-05-07T03:17:52;11.60;99.90
60039;DHT22;45916;52.734;6.544;2023-05-07T03:20:18;11.60;99.90
60039;DHT22;45916;52.734;6.544;2023-05-07T03:22:44;11.60;99.90
60039;DHT22;45916;52.734;6.544;2023-05-07T03:25:10;11.60;99.90
60039;DHT22;45916;52.734;6.544;2023-05-07T03:27:36;11.60;99.90
60039;DHT22;45916;52.734;6.544;2023-05-07T03:30:01;11.50;99.90
60039;DHT22;45916;52.734;6.544;2023-05-07T03:32:27;11.50;99.90
60039;DHT22;45916;52.734;6.544;2023-05-07T03:34:53;11.50;99.90
60039;DHT22;45916;52.734;6.544;2023-05-07T03:37:18;11.50;99.90
60039;DHT22;45916;52.734;6.544;2023-05-07T03:39:44;11.50;99.90
60039;DHT22;45916;52.734;6.544;2023-05-07T03:42:10;11.50;99.90
60039;DHT22;45916;52.734;6.544;2023-05-07T03:44:36;11.40;99.90
60039;DHT22;45916;52.734;6.544;2023-05-07T03:47:02;11.40;99.90
60039;DHT22;45916;52.734;6.544;2023-05-07T03:49:28;11.40;99.90
60039;DHT22;45916;52.734;6.544;2023-05-07T03:51:53;11.40;99.90
60039;DHT22;45916;52.734;6.544;2023-05-07T03:54:19;11.40;99.90
60039;DHT22;45916;52.734;6.544;2023-05-07T03:56:45;11.40;99.90
60039;DHT22;45916;52.734;6.544;2023-05-07T03:59:11;11.40;99.90
60039;DHT22;45916;52.734;6.544;2023-05-07T04:01:37;11.40;99.90
60039;DHT22;45916;52.734;6.544;2023-05-07T04:04:02;11.40;99.90
60039;DHT22;45916;52.734;6.544;2023-05-07T04:06:29;11.40;99.90
60039;DHT22;45916;52.734;6.544;2023-05-07T04:08:55;11.30;99.90
60039;DHT22;45916;52.734;6.544;2023-05-07T04:11:21;11.40;99.90
60039;DHT22;45916;52.734;6.544;2023-05-07T04:13:47;11.40;99.90
60039;DHT22;45916;52.734;6.544;2023-05-07T04:16:12;11.40;99.90
60039;DHT22;45916;52.734;6.544;2023-05-07T04:18:38;11.30;99.90
60039;DHT22;45916;52.734;6.544;2023-05-07T04:21:04;11.30;99.90
60039;DHT22;45916;52.734;6.544;2023-05-07T04:23:30;11.30;99.90
60039;DHT22;45916;52.734;6.544;2023-05-07T04:25:56;11.30;99.90
60039;DHT22;45916;52.734;6.544;2023-05-07T04:28:23;11.30;99.90
60039;DHT22;45916;52.734;6.544;2023-05-07T04:30:49;11.30;99.90
60039;DHT22;45916;52.734;6.544;2023-05-07T04:33:15;11.30;99.90
60039;DHT22;45916;52.734;6.544;2023-05-07T04:35:43;11.40;99.90
60039;DHT22;45916;52.734;6.544;2023-05-07T04:38:09;11.40;99.90
60039;DHT22;45916;52.734;6.544;2023-05-07T04:40:38;11.40;99.90
60039;DHT22;45916;52.734;6.544;2023-05-07T04:43:04;11.50;99.90
60039;DHT22;45916;52.734;6.544;2023-05-07T04:45:30;11.40;99.90
60039;DHT22;45916;52.734;6.544;2023-05-07T04:47:56;11.50;99.90
60039;DHT22;45916;52.734;6.544;2023-05-07T04:50:21;11.40;99.90
60039;DHT22;45916;52.734;6.544;2023-05-07T04:52:49;11.50;99.90
60039;DHT22;45916;52.734;6.544;2023-05-07T04:55:15;11.50;99.90
60039;DHT22;45916;52.734;6.544;2023-05-07T04:57:41;11.50;99.90
60039;DHT22;45916;52.734;6.544;2023-05-07T05:00:07;11.50;99.90
60039;DHT22;45916;52.734;6.544;2023-05-07T05:02:36;11.50;99.90
60039;DHT22;45916;52.734;6.544;2023-05-07T05:05:02;11.50;99.90
60039;DHT22;45916;52.734;6.544;2023-05-07T05:07:28;11.60;99.90
60039;DHT22;45916;52.734;6.544;2023-05-07T05:09:54;11.60;99.90
60039;DHT22;45916;52.734;6.544;2023-05-07T05:12:21;11.60;99.90
60039;DHT22;45916;52.734;6.544;2023-05-07T05:14:46;11.60;99.90
60039;DHT22;45916;52.734;6.544;2023-05-07T05:17:12;11.70;99.90
60039;DHT22;45916;52.734;6.544;2023-05-07T05:19:38;11.60;99.90
60039;DHT22;45916;52.734;6.544;2023-05-07T05:22:04;11.70;99.90
60039;DHT22;45916;52.734;6.544;2023-05-07T05:24:30;11.70;99.90
60039;DHT22;45916;52.734;6.544;2023-05-07T05:26:56;11.80;99.90
60039;DHT22;45916;52.734;6.544;2023-05-07T05:29:22;11.80;99.90
60039;DHT22;45916;52.734;6.544;2023-05-07T05:31:48;11.70;99.90
60039;DHT22;45916;52.734;6.544;2023-05-07T05:34:13;11.80;99.90
60039;DHT22;45916;52.734;6.544;2023-05-07T05:36:39;11.80;99.90
60039;DHT22;45916;52.734;6.544;2023-05-07T05:39:05;11.70;99.90
60039;DHT22;45916;52.734;6.544;2023-05-07T05:41:31;11.80;99.90
60039;DHT22;45916;52.734;6.544;2023-05-07T05:43:57;11.80;99.90
60039;DHT22;45916;52.734;6.544;2023-05-07T05:46:22;11.80;99.90
60039;DHT22;45916;52.734;6.544;2023-05-07T05:48:48;11.80;99.90
60039;DHT22;45916;52.734;6.544;2023-05-07T05:51:14;11.80;99.90
60039;DHT22;45916;52.734;6.544;2023-05-07T05:53:39;11.80;99.90
60039;DHT22;45916;52.734;6.544;2023-05-07T05:56:05;11.80;99.90
60039;DHT22;45916;52.734;6.544;2023-05-07T05:58:31;11.90;99.90
60039;DHT22;45916;52.734;6.544;2023-05-07T06:00:57;11.80;99.90
60039;DHT22;45916;52.734;6.544;2023-05-07T06:03:24;11.90;99.90
60039;DHT22;45916;52.734;6.544;2023-05-07T06:05:49;12.00;99.90
60039;DHT22;45916;52.734;6.544;2023-05-07T06:08:15;11.90;99.90
60039;DHT22;45916;52.734;6.544;2023-05-07T06:10:41;11.90;99.90
60039;DHT22;45916;52.734;6.544;2023-05-07T06:13:07;11.90;99.90
60039;DHT22;45916;52.734;6.544;2023-05-07T06:15:33;11.90;99.90
60039;DHT22;45916;52.734;6.544;2023-05-07T06:17:58;11.90;99.90
60039;DHT22;45916;52.734;6.544;2023-05-07T06:20:24;11.90;99.90
60039;DHT22;45916;52.734;6.544;2023-05-07T06:22:50;11.90;99.90
60039;DHT22;45916;52.734;6.544;2023-05-07T06:25:15;11.90;99.90
60039;DHT22;45916;52.734;6.544;2023-05-07T06:27:41;11.90;99.90
60039;DHT22;45916;52.734;6.544;2023-05-07T06:30:07;11.90;99.90
60039;DHT22;45916;52.734;6.544;2023-05-07T06:32:33;11.90;99.90
60039;DHT22;45916;52.734;6.544;2023-05-07T06:34:59;11.90;99.90
60039;DHT22;45916;52.734;6.544;2023-05-07T06:37:25;11.90;99.90
60039;DHT22;45916;52.734;6.544;2023-05-07T06:39:51;12.00;99.90
60039;DHT22;45916;52.734;6.544;2023-05-07T06:42:16;12.00;99.90
60039;DHT22;45916;52.734;6.544;2023-05-07T06:44:42;12.10;99.90
60039;DHT22;45916;52.734;6.544;2023-05-07T06:47:08;12.10;99.90
60039;DHT22;45916;52.734;6.544;2023-05-07T06:49:33;12.10;99.90
60039;DHT22;45916;52.734;6.544;2023-05-07T06:51:59;12.20;99.90
60039;DHT22;45916;52.734;6.544;2023-05-07T06:54:25;12.40;99.90
60039;DHT22;45916;52.734;6.544;2023-05-07T06:56:50;12.50;99.90
60039;DHT22;45916;52.734;6.544;2023-05-07T06:59:16;12.60;99.90
60039;DHT22;45916;52.734;6.544;2023-05-07T07:01:42;12.80;99.90
60039;DHT22;45916;52.734;6.544;2023-05-07T07:04:07;13.00;99.90
60039;DHT22;45916;52.734;6.544;2023-05-07T07:06:33;13.30;99.90
60039;DHT22;45916;52.734;6.544;2023-05-07T07:08:59;13.60;99.90
60039;DHT22;45916;52.734;6.544;2023-05-07T07:11:25;13.90;99.90
60039;DHT22;45916;52.734;6.544;2023-05-07T07:13:51;14.00;99.90
60039;DHT22;45916;52.734;6.544;2023-05-07T07:16:16;14.30;99.90
60039;DHT22;45916;52.734;6.544;2023-05-07T07:18:42;14.90;99.90
60039;DHT22;45916;52.734;6.544;2023-05-07T07:21:08;15.50;99.90
60039;DHT22;45916;52.734;6.544;2023-05-07T07:23:33;15.80;99.90
60039;DHT22;45916;52.734;6.544;2023-05-07T07:25:59;16.30;99.90
60039;DHT22;45916;52.734;6.544;2023-05-07T07:28:25;16.30;99.90
60039;DHT22;45916;52.734;6.544;2023-05-07T07:30:51;16.40;99.90
60039;DHT22;45916;52.734;6.544;2023-05-07T07:33:16;16.50;99.90
60039;DHT22;45916;52.734;6.544;2023-05-07T07:35:42;16.10;99.90
60039;DHT22;45916;52.734;6.544;2023-05-07T07:38:08;15.90;99.90
60039;DHT22;45916;52.734;6.544;2023-05-07T07:40:36;16.00;99.90
60039;DHT22;45916;52.734;6.544;2023-05-07T07:43:02;16.20;99.90
60039;DHT22;45916;52.734;6.544;2023-05-07T07:45:28;16.10;99.90
60039;DHT22;45916;52.734;6.544;2023-05-07T07:47:54;16.00;99.90
60039;DHT22;45916;52.734;6.544;2023-05-07T07:50:20;16.10;99.90
60039;DHT22;45916;52.734;6.544;2023-05-07T07:52:46;16.10;99.90
60039;DHT22;45916;52.734;6.544;2023-05-07T07:55:12;16.30;99.90
60039;DHT22;45916;52.734;6.544;2023-05-07T07:57:37;16.30;99.90
60039;DHT22;45916;52.734;6.544;2023-05-07T08:00:04;16.40;99.90
60039;DHT22;45916;52.734;6.544;2023-05-07T08:02:31;16.40;99.90
60039;DHT22;45916;52.734;6.544;2023-05-07T08:04:57;16.40;99.90
60039;DHT22;45916;52.734;6.544;2023-05-07T08:07:23;16.50;99.90
60039;DHT22;45916;52.734;6.544;2023-05-07T08:09:48;16.40;99.90
60039;DHT22;45916;52.734;6.544;2023-05-07T08:12:14;16.50;99.90
60039;DHT22;45916;52.734;6.544;2023-05-07T08:14:41;16.40;99.90
60039;DHT22;45916;52.734;6.544;2023-05-07T08:17:06;16.40;99.90
60039;DHT22;45916;52.734;6.544;2023-05-07T08:19:32;16.50;99.90
60039;DHT22;45916;52.734;6.544;2023-05-07T08:21:58;16.60;99.90
60039;DHT22;45916;52.734;6.544;2023-05-07T08:24:24;16.50;99.90
60039;DHT22;45916;52.734;6.544;2023-05-07T08:26:49;16.40;99.90
60039;DHT22;45916;52.734;6.544;2023-05-07T08:29:15;16.50;99.90
60039;DHT22;45916;52.734;6.544;2023-05-07T08:31:41;16.60;99.90
60039;DHT22;45916;52.734;6.544;2023-05-07T08:34:07;16.80;99.90
60039;DHT22;45916;52.734;6.544;2023-05-07T08:36:33;16.90;99.90
60039;DHT22;45916;52.734;6.544;2023-05-07T08:38:59;16.90;99.90
60039;DHT22;45916;52.734;6.544;2023-05-07T08:41:25;17.00;99.90
60039;DHT22;45916;52.734;6.544;2023-05-07T08:43:51;17.30;99.90
60039;DHT22;45916;52.734;6.544;2023-05-07T08:46:19;18.10;99.90
60039;DHT22;45916;52.734;6.544;2023-05-07T08:48:47;19.20;99.90
60039;DHT22;45916;52.734;6.544;2023-05-07T08:51:15;20.00;99.90
60039;DHT22;45916;52.734;6.544;2023-05-07T08:53:41;20.60;99.90
60039;DHT22;45916;52.734;6.544;2023-05-07T08:56:08;20.80;98.90
60039;DHT22;45916;52.734;6.544;2023-05-07T08:58:34;20.80;95.80
60039;DHT22;45916;52.734;6.544;2023-05-07T09:01:09;21.70;90.30
60039;DHT22;45916;52.734;6.544;2023-05-07T09:03:38;22.50;80.90
60039;DHT22;45916;52.734;6.544;2023-05-07T09:06:04;23.20;74.30
60039;DHT22;45916;52.734;6.544;2023-05-07T09:08:33;23.90;69.50
60039;DHT22;45916;52.734;6.544;2023-05-07T09:10:59;24.40;64.90
60039;DHT22;45916;52.734;6.544;2023-05-07T09:13:25;24.70;63.90
60039;DHT22;45916;52.734;6.544;2023-05-07T09:15:52;24.50;61.40
60039;DHT22;45916;52.734;6.544;2023-05-07T09:18:18;24.20;64.40
60039;DHT22;45916;52.734;6.544;2023-05-07T09:20:43;23.90;64.40
60039;DHT22;45916;52.734;6.544;2023-05-07T09:23:09;23.80;65.90
60039;DHT22;45916;52.734;6.544;2023-05-07T09:25:36;24.60;64.20
60039;DHT22;45916;52.734;6.544;2023-05-07T09:28:03;24.10;65.60
60039;DHT22;45916;52.734;6.544;2023-05-07T09:30:30;24.80;63.40
60039;DHT22;45916;52.734;6.544;2023-05-07T09:33:00;25.70;60.30
60039;DHT22;45916;52.734;6.544;2023-05-07T09:35:26;25.70;58.60
60039;DHT22;45916;52.734;6.544;2023-05-07T09:37:56;25.90;58.90
60039;DHT22;45916;52.734;6.544;2023-05-07T09:40:30;26.10;57.60
60039;DHT22;45916;52.734;6.544;2023-05-07T09:42:56;26.00;56.60
60039;DHT22;45916;52.734;6.544;2023-05-07T09:45:33;26.50;57.40
60039;DHT22;45916;52.734;6.544;2023-05-07T09:47:59;26.60;56.40
60039;DHT22;45916;52.734;6.544;2023-05-07T09:50:27;26.40;56.00
60039;DHT22;45916;52.734;6.544;2023-05-07T09:52:55;25.60;56.70
60039;DHT22;45916;52.734;6.544;2023-05-07T09:55:22;24.70;58.10
60039;DHT22;45916;52.734;6.544;2023-05-07T09:57:52;23.90;61.10
60039;DHT22;45916;52.734;6.544;2023-05-07T10:00:20;24.10;61.70
60039;DHT22;45916;52.734;6.544;2023-05-07T10:02:51;24.60;59.60
60039;DHT22;45916;52.734;6.544;2023-05-07T10:05:21;24.80;60.70
60039;DHT22;45916;52.734;6.544;2023-05-07T10:07:48;25.20;59.40
60039;DHT22;45916;52.734;6.544;2023-05-07T10:10:15;25.60;59.00
60039;DHT22;45916;52.734;6.544;2023-05-07T10:12:44;26.50;57.40
60039;DHT22;45916;52.734;6.544;2023-05-07T10:15:11;26.90;56.00
60039;DHT22;45916;52.734;6.544;2023-05-07T10:17:38;27.20;55.00
60039;DHT22;45916;52.734;6.544;2023-05-07T10:20:05;26.70;54.50
60039;DHT22;45916;52.734;6.544;2023-05-07T10:22:51;26.70;55.50
60039;DHT22;45916;52.734;6.544;2023-05-07T10:25:26;26.80;55.90
60039;DHT22;45916;52.734;6.544;2023-05-07T10:27:55;26.40;55.20
60039;DHT22;45916;52.734;6.544;2023-05-07T10:32:54;27.00;55.10
60039;DHT22;45916;52.734;6.544;2023-05-07T10:35:27;27.20;56.00
60039;DHT22;45916;52.734;6.544;2023-05-07T10:37:55;27.10;54.10
60039;DHT22;45916;52.734;6.544;2023-05-07T10:40:21;26.80;54.30
60039;DHT22;45916;52.734;6.544;2023-05-07T10:43:00;27.00;54.40
60039;DHT22;45916;52.734;6.544;2023-05-07T10:45:27;26.40;54.80
60039;DHT22;45916;52.734;6.544;2023-05-07T10:48:15;25.90;55.60
60039;DHT22;45916;52.734;6.544;2023-05-07T10:50:41;25.70;55.70
60039;DHT22;45916;52.734;6.544;2023-05-07T10:56:23;25.10;58.00
60039;DHT22;45916;52.734;6.544;2023-05-07T10:58:34;25.00;60.80
60039;DHT22;45916;52.734;6.544;2023-05-07T11:01:02;25.00;59.60
60039;DHT22;45916;52.734;6.544;2023-05-07T11:03:29;25.00;58.60
60039;DHT22;45916;52.734;6.544;2023-05-07T11:06:14;24.90;59.20
60039;DHT22;45916;52.734;6.544;2023-05-07T11:08:53;24.40;60.00
60039;DHT22;45916;52.734;6.544;2023-05-07T11:11:19;23.70;61.60
60039;DHT22;45916;52.734;6.544;2023-05-07T11:13:46;23.00;65.50
60039;DHT22;45916;52.734;6.544;2023-05-07T11:16:26;22.60;67.90
60039;DHT22;45916;52.734;6.544;2023-05-07T11:18:56;21.80;67.60
60039;DHT22;45916;52.734;6.544;2023-05-07T11:21:38;21.40;71.90
60039;DHT22;45916;52.734;6.544;2023-05-07T11:24:09;21.20;85.20
60039;DHT22;45916;52.734;6.544;2023-05-07T11:26:47;21.30;80.00
60039;DHT22;45916;52.734;6.544;2023-05-07T11:29:18;21.30;83.30
60039;DHT22;45916;52.734;6.544;2023-05-07T11:31:51;21.20;85.70
60039;DHT22;45916;52.734;6.544;2023-05-07T11:34:24;21.40;82.70
60039;DHT22;45916;52.734;6.544;2023-05-07T11:36:50;21.40;78.40
60039;DHT22;45916;52.734;6.544;2023-05-07T11:39:31;21.40;77.90
60039;DHT22;45916;52.734;6.544;2023-05-07T11:42:01;21.20;79.00
60039;DHT22;45916;52.734;6.544;2023-05-07T11:44:45;21.00;82.30
60039;DHT22;45916;52.734;6.544;2023-05-07T11:47:17;20.90;91.40
60039;DHT22;45916;52.734;6.544;2023-05-07T11:49:46;20.80;90.10
60039;DHT22;45916;52.734;6.544;2023-05-07T11:52:13;20.80;83.10
60039;DHT22;45916;52.734;6.544;2023-05-07T11:54:39;20.70;82.90
60039;DHT22;45916;52.734;6.544;2023-05-07T11:57:04;20.50;85.00
60039;DHT22;45916;52.734;6.544;2023-05-07T11:59:39;20.60;88.40
60039;DHT22;45916;52.734;6.544;2023-05-07T12:02:10;20.60;83.30
60039;DHT22;45916;52.734;6.544;2023-05-07T12:04:37;20.10;87.00
60039;DHT22;45916;52.734;6.544;2023-05-07T12:07:03;20.10;86.70
60039;DHT22;45916;52.734;6.544;2023-05-07T12:09:29;20.10;90.80
60039;DHT22;45916;52.734;6.544;2023-05-07T12:11:55;20.30;91.30
60039;DHT22;45916;52.734;6.544;2023-05-07T12:14:27;20.40;91.20
60039;DHT22;45916;52.734;6.544;2023-05-07T12:16:53;20.30;91.30
60039;DHT22;45916;52.734;6.544;2023-05-07T12:19:19;20.20;89.30
60039;DHT22;45916;52.734;6.544;2023-05-07T12:21:44;20.20;91.10
60039;DHT22;45916;52.734;6.544;2023-05-07T12:24:10;20.00;91.30
60039;DHT22;45916;52.734;6.544;2023-05-07T12:26:39;19.90;92.80
60039;DHT22;45916;52.734;6.544;2023-05-07T12:29:06;20.00;92.40
60039;DHT22;45916;52.734;6.544;2023-05-07T12:31:32;19.90;92.40
60039;DHT22;45916;52.734;6.544;2023-05-07T12:33:58;19.60;91.80
60039;DHT22;45916;52.734;6.544;2023-05-07T12:36:24;19.60;93.80
60039;DHT22;45916;52.734;6.544;2023-05-07T12:38:51;19.70;93.30
60039;DHT22;45916;52.734;6.544;2023-05-07T12:41:17;19.70;94.10
60039;DHT22;45916;52.734;6.544;2023-05-07T12:43:44;19.50;95.50
60039;DHT22;45916;52.734;6.544;2023-05-07T12:46:11;19.30;98.90
60039;DHT22;45916;52.734;6.544;2023-05-07T12:48:43;19.30;98.30
60039;DHT22;45916;52.734;6.544;2023-05-07T12:51:09;19.40;99.90
60039;DHT22;45916;52.734;6.544;2023-05-07T12:53:40;19.70;95.90
60039;DHT22;45916;52.734;6.544;2023-05-07T12:56:07;19.90;94.20
60039;DHT22;45916;52.734;6.544;2023-05-07T12:58:35;20.00;92.60
60039;DHT22;45916;52.734;6.544;2023-05-07T13:01:07;19.90;94.70
60039;DHT22;45916;52.734;6.544;2023-05-07T13:03:36;20.00;95.30
60039;DHT22;45916;52.734;6.544;2023-05-07T13:06:07;20.00;94.50
60039;DHT22;45916;52.734;6.544;2023-05-07T13:08:37;20.00;93.90
60039;DHT22;45916;52.734;6.544;2023-05-07T13:11:07;19.90;92.80
60039;DHT22;45916;52.734;6.544;2023-05-07T13:13:35;19.80;94.30
60039;DHT22;45916;52.734;6.544;2023-05-07T13:16:05;19.50;93.60
60039;DHT22;45916;52.734;6.544;2023-05-07T13:18:32;19.40;94.90
60039;DHT22;45916;52.734;6.544;2023-05-07T13:20:59;19.30;96.70
60039;DHT22;45916;52.734;6.544;2023-05-07T13:23:25;19.30;95.00
60039;DHT22;45916;52.734;6.544;2023-05-07T13:25:51;19.30;95.70
60039;DHT22;45916;52.734;6.544;2023-05-07T13:28:19;19.30;94.20
60039;DHT22;45916;52.734;6.544;2023-05-07T13:30:46;19.30;97.50
60039;DHT22;45916;52.734;6.544;2023-05-07T13:33:11;19.00;97.90
60039;DHT22;45916;52.734;6.544;2023-05-07T13:35:37;19.00;98.40
60039;DHT22;45916;52.734;6.544;2023-05-07T13:38:03;19.00;99.90
60039;DHT22;45916;52.734;6.544;2023-05-07T13:40:29;18.70;99.90
60039;DHT22;45916;52.734;6.544;2023-05-07T13:42:57;18.70;99.90
60039;DHT22;45916;52.734;6.544;2023-05-07T13:45:23;18.60;99.90
60039;DHT22;45916;52.734;6.544;2023-05-07T13:47:51;18.60;99.90
60039;DHT22;45916;52.734;6.544;2023-05-07T13:50:17;18.30;99.90
60039;DHT22;45916;52.734;6.544;2023-05-07T13:52:44;18.00;99.90
60039;DHT22;45916;52.734;6.544;2023-05-07T13:55:20;17.70;99.90
60039;DHT22;45916;52.734;6.544;2023-05-07T13:57:46;17.40;99.90
60039;DHT22;45916;52.734;6.544;2023-05-07T14:00:13;17.10;99.90
60039;DHT22;45916;52.734;6.544;2023-05-07T14:02:40;16.80;99.90
60039;DHT22;45916;52.734;6.544;2023-05-07T14:05:06;16.80;99.90
60039;DHT22;45916;52.734;6.544;2023-05-07T14:07:32;16.80;99.90
60039;DHT22;45916;52.734;6.544;2023-05-07T14:09:58;16.90;99.90
60039;DHT22;45916;52.734;6.544;2023-05-07T14:12:24;17.10;99.90
60039;DHT22;45916;52.734;6.544;2023-05-07T14:14:49;17.30;99.90
60039;DHT22;45916;52.734;6.544;2023-05-07T14:17:18;17.50;99.90
60039;DHT22;45916;52.734;6.544;2023-05-07T14:19:45;17.80;99.90
60039;DHT22;45916;52.734;6.544;2023-05-07T14:22:13;18.00;99.90
60039;DHT22;45916;52.734;6.544;2023-05-07T14:24:39;18.10;99.90
60039;DHT22;45916;52.734;6.544;2023-05-07T14:27:05;18.20;99.90
60039;DHT22;45916;52.734;6.544;2023-05-07T14:29:31;18.20;99.90
60039;DHT22;45916;52.734;6.544;2023-05-07T14:31:56;18.30;99.90
60039;DHT22;45916;52.734;6.544;2023-05-07T14:34:22;18.40;99.90
60039;DHT22;45916;52.734;6.544;2023-05-07T14:36:48;18.40;99.90
60039;DHT22;45916;52.734;6.544;2023-05-07T14:39:14;18.50;99.90
60039;DHT22;45916;52.734;6.544;2023-05-07T14:41:39;18.50;99.90
60039;DHT22;45916;52.734;6.544;2023-05-07T14:44:05;18.50;99.90
60039;DHT22;45916;52.734;6.544;2023-05-07T14:46:31;18.50;99.90
60039;DHT22;45916;52.734;6.544;2023-05-07T14:48:57;18.50;99.90
60039;DHT22;45916;52.734;6.544;2023-05-07T14:51:23;18.30;99.90
60039;DHT22;45916;52.734;6.544;2023-05-07T14:53:50;18.20;99.90
60039;DHT22;45916;52.734;6.544;2023-05-07T14:56:16;18.20;99.90
60039;DHT22;45916;52.734;6.544;2023-05-07T14:58:42;18.10;99.90
60039;DHT22;45916;52.734;6.544;2023-05-07T15:01:09;18.10;99.90
60039;DHT22;45916;52.734;6.544;2023-05-07T15:03:35;18.20;99.90
60039;DHT22;45916;52.734;6.544;2023-05-07T15:06:02;18.20;99.90
60039;DHT22;45916;52.734;6.544;2023-05-07T15:08:28;18.20;99.90
60039;DHT22;45916;52.734;6.544;2023-05-07T15:10:54;18.10;99.90
60039;DHT22;45916;52.734;6.544;2023-05-07T15:13:20;18.10;99.90
60039;DHT22;45916;52.734;6.544;2023-05-07T15:15:46;18.20;99.90
60039;DHT22;45916;52.734;6.544;2023-05-07T15:18:12;18.20;99.90
60039;DHT22;45916;52.734;6.544;2023-05-07T15:20:38;18.20;99.90
60039;DHT22;45916;52.734;6.544;2023-05-07T15:23:05;18.20;99.90
60039;DHT22;45916;52.734;6.544;2023-05-07T15:25:31;18.20;99.90
60039;DHT22;45916;52.734;6.544;2023-05-07T15:27:58;18.20;99.90
60039;DHT22;45916;52.734;6.544;2023-05-07T15:30:24;18.20;99.90
60039;DHT22;45916;52.734;6.544;2023-05-07T15:32:50;18.20;99.90